createdAt,value
2023-05-20T00:01:33.746Z,102128.69
2023-05-20T00:04:00.486Z,102131.84
2023-05-20T00:06:27.124Z,102125.88
2023-05-20T00:08:55.740Z,102133.44
2023-05-20T00:11:22.199Z,102130.69
2023-05-20T00:13:48.811Z,102137.56
2023-05-20T00:16:15.514Z,102134.00
2023-05-20T00:18:42.033Z,102134.88
2023-05-20T00:21:08.541Z,102132.28
2023-05-20T00:23:35.111Z,102139.44
2023-05-20T00:26:01.964Z,102134.75
2023-05-20T00:28:28.649Z,102138.91
2023-05-20T00:30:55.239Z,102136.31
2023-05-20T00:33:21.914Z,102134.59
2023-05-20T00:35:48.460Z,102127.06
2023-05-20T00:38:14.945Z,102132.03
2023-05-20T00:40:41.482Z,102130.47
2023-05-20T00:43:07.981Z,102134.19
2023-05-20T00:45:34.845Z,102136.31
2023-05-20T00:48:04.175Z,102124.38
2023-05-20T00:50:32.031Z,102123.50
2023-05-20T00:52:58.856Z,102121.38
2023-05-20T00:55:26.304Z,102115.63
2023-05-20T00:57:54.269Z,102116.06
2023-05-20T01:00:20.899Z,102116.38
2023-05-20T01:02:47.697Z,102116.53
2023-05-20T01:05:14.280Z,102111.38
2023-05-20T01:07:41.550Z,102107.41
2023-05-20T01:10:09.486Z,102105.84
2023-05-20T01:12:38.135Z,102115.94
2023-05-20T01:15:09.738Z,102108.53
2023-05-20T01:17:40.108Z,102111.25
2023-05-20T01:20:10.321Z,102104.69
2023-05-20T01:22:53.312Z,102111.41
2023-05-20T01:25:20.250Z,102106.69
2023-05-20T01:27:49.055Z,102106.41
2023-05-20T01:30:16.722Z,102105.84
2023-05-20T01:32:48.691Z,102109.53
2023-05-20T01:35:16.504Z,102099.69
2023-05-20T01:37:43.864Z,102102.97
2023-05-20T01:40:14.036Z,102096.00
2023-05-20T01:42:43.065Z,102092.72
2023-05-20T01:45:10.089Z,102101.41
2023-05-20T01:47:36.681Z,102096.88
2023-05-20T01:50:03.464Z,102094.00
2023-05-20T01:52:31.648Z,102096.88
2023-05-20T01:54:58.291Z,102095.28
2023-05-20T01:57:24.868Z,102092.59
2023-05-20T01:59:51.387Z,102093.44
2023-05-20T02:02:18.143Z,102089.03
2023-05-20T02:04:50.454Z,102088.44
2023-05-20T02:07:21.806Z,102089.84
2023-05-20T02:09:48.346Z,102086.88
2023-05-20T02:12:17.874Z,102086.00
2023-05-20T02:14:45.992Z,102085.47
2023-05-20T02:17:16.326Z,102093.16
2023-05-20T02:19:47.085Z,102083.59
2023-05-20T02:22:14.669Z,102086.13
2023-05-20T02:24:43.181Z,102084.00
2023-05-20T02:27:09.874Z,102086.16
2023-05-20T02:29:37.010Z,102085.75
2023-05-20T02:32:03.727Z,102085.59
2023-05-20T02:34:31.679Z,102080.31
2023-05-20T02:36:58.351Z,102087.59
2023-05-20T02:39:24.830Z,102077.47
2023-05-20T02:41:51.375Z,102073.19
2023-05-20T02:44:18.191Z,102070.72
2023-05-20T02:46:44.738Z,102075.00
2023-05-20T02:49:11.401Z,102066.75
2023-05-20T02:51:37.886Z,102075.47
2023-05-20T02:54:04.438Z,102069.47
2023-05-20T02:56:32.561Z,102064.44
2023-05-20T02:58:59.168Z,102064.63
2023-05-20T03:01:25.801Z,102065.03
2023-05-20T03:03:52.573Z,102060.63
2023-05-20T03:06:19.074Z,102066.78
2023-05-20T03:08:45.615Z,102068.75
2023-05-20T03:11:12.098Z,102058.78
2023-05-20T03:13:38.660Z,102061.38
2023-05-20T03:16:05.499Z,102062.09
2023-05-20T03:18:32.008Z,102075.31
2023-05-20T03:20:58.527Z,102074.88
2023-05-20T03:23:25.180Z,102076.44
2023-05-20T03:25:51.698Z,102080.59
2023-05-20T03:28:18.201Z,102085.16
2023-05-20T03:30:44.705Z,102080.41
2023-05-20T03:33:11.544Z,102074.75
2023-05-20T03:35:38.065Z,102079.13
2023-05-20T03:38:04.518Z,102080.69
2023-05-20T03:40:31.021Z,102075.28
2023-05-20T03:42:57.509Z,102082.09
2023-05-20T03:45:24.178Z,102079.28
2023-05-20T03:47:50.670Z,102077.28
2023-05-20T03:50:17.354Z,102078.69
2023-05-20T03:52:43.934Z,102072.97
2023-05-20T03:55:10.531Z,102068.41
2023-05-20T03:57:37.711Z,102073.81
2023-05-20T04:00:10.375Z,102070.41
2023-05-20T04:02:37.176Z,102075.81
2023-05-20T04:05:04.374Z,102069.00
2023-05-20T04:07:30.917Z,102082.22
2023-05-20T04:09:58.866Z,102084.22
2023-05-20T04:12:30.653Z,102085.88
2023-05-20T04:15:01.396Z,102081.38
2023-05-20T04:17:31.438Z,102075.38
2023-05-20T04:19:59.946Z,102077.22
2023-05-20T04:22:27.412Z,102071.69
2023-05-20T04:24:54.438Z,102071.97
2023-05-20T04:27:21.696Z,102082.63
2023-05-20T04:29:48.572Z,102075.66
2023-05-20T04:32:19.736Z,102081.53
2023-05-20T04:34:46.963Z,102076.13
2023-05-20T04:37:13.978Z,102084.78
2023-05-20T04:39:40.519Z,102083.94
2023-05-20T04:42:07.070Z,102094.34
2023-05-20T04:44:33.552Z,102084.81
2023-05-20T04:47:00.257Z,102086.81
2023-05-20T04:49:27.133Z,102092.22
2023-05-20T04:51:55.565Z,102086.69
2023-05-20T04:54:22.313Z,102084.25
2023-05-20T04:56:48.988Z,102091.00
2023-05-20T04:59:15.505Z,102077.63
2023-05-20T05:01:42.021Z,102085.59
2023-05-20T05:04:11.864Z,102082.25
2023-05-20T05:06:38.472Z,102077.63
2023-05-20T05:09:04.984Z,102076.03
2023-05-20T05:11:31.755Z,102090.28
2023-05-20T05:13:58.217Z,102080.16
2023-05-20T05:16:24.873Z,102080.31
2023-05-20T05:18:51.457Z,102087.88
2023-05-20T05:21:18.035Z,102079.91
2023-05-20T05:23:44.579Z,102077.31
2023-05-20T05:26:11.126Z,102070.91
2023-05-20T05:28:37.806Z,102076.47
2023-05-20T05:31:04.413Z,102069.75
2023-05-20T05:33:31.040Z,102068.03
2023-05-20T05:35:59.225Z,102064.91
2023-05-20T05:38:25.984Z,102074.47
2023-05-20T05:40:53.395Z,102067.63
2023-05-20T05:43:19.875Z,102065.31
2023-05-20T05:45:46.967Z,102062.78
2023-05-20T05:48:13.640Z,102058.19
2023-05-20T05:50:44.826Z,102055.16
2023-05-20T05:53:11.444Z,102052.81
2023-05-20T05:55:38.134Z,102052.41
2023-05-20T05:58:04.653Z,102056.97
2023-05-20T06:00:31.234Z,102049.22
2023-05-20T06:02:58.164Z,102053.44
2023-05-20T06:05:25.835Z,102054.19
2023-05-20T06:07:54.322Z,102065.50
2023-05-20T06:10:21.567Z,102055.38
2023-05-20T06:12:48.286Z,102047.41
2023-05-20T06:15:14.841Z,102056.03
2023-05-20T06:17:41.507Z,102039.97
2023-05-20T06:20:08.602Z,102046.97
2023-05-20T06:22:35.113Z,102040.56
2023-05-20T06:25:02.632Z,102046.38
2023-05-20T06:27:29.161Z,102038.69
2023-05-20T06:29:55.715Z,102038.47
2023-05-20T06:32:22.272Z,102024.97
2023-05-20T06:34:48.842Z,102030.03
2023-05-20T06:37:15.422Z,102025.59
2023-05-20T06:39:41.917Z,102031.41
2023-05-20T06:42:08.423Z,102033.16
2023-05-20T06:44:34.886Z,102025.63
2023-05-20T06:47:01.430Z,102029.38
2023-05-20T06:49:28.473Z,102027.81
2023-05-20T06:51:54.961Z,102029.03
2023-05-20T06:54:22.040Z,102022.56
2023-05-20T06:56:48.569Z,102007.19
2023-05-20T06:59:15.172Z,102007.22
2023-05-20T07:01:41.759Z,102007.00
2023-05-20T07:04:08.294Z,102003.34
2023-05-20T07:06:34.849Z,102007.50
2023-05-20T07:09:01.478Z,102006.09
2023-05-20T07:11:28.026Z,102003.00
2023-05-20T07:13:54.846Z,102002.03
2023-05-20T07:16:21.357Z,101997.09
2023-05-20T07:18:47.905Z,101994.31
2023-05-20T07:21:14.382Z,101992.50
2023-05-20T07:23:41.022Z,101995.38
2023-05-20T07:26:07.526Z,101985.75
2023-05-20T07:28:34.597Z,101992.63
2023-05-20T07:31:01.082Z,102000.00
2023-05-20T07:33:27.604Z,101986.16
2023-05-20T07:35:54.617Z,101978.69
2023-05-20T07:38:21.500Z,101986.28
2023-05-20T07:40:47.963Z,101975.22
2023-05-20T07:43:14.631Z,101978.53
2023-05-20T07:45:41.335Z,101961.69
2023-05-20T07:48:09.004Z,101977.00
2023-05-20T07:50:35.999Z,101963.66
2023-05-20T07:53:02.540Z,101964.34
2023-05-20T07:55:28.974Z,101965.72
2023-05-20T07:57:55.775Z,101964.78
2023-05-20T08:00:22.363Z,101962.94
2023-05-20T08:02:48.936Z,101954.81
2023-05-20T08:05:15.672Z,101960.75
2023-05-20T08:07:42.177Z,101961.16
2023-05-20T08:10:09.377Z,101962.66
2023-05-20T08:12:35.986Z,101964.13
2023-05-20T08:15:02.487Z,101950.94
2023-05-20T08:17:29.059Z,101955.16
2023-05-20T08:19:55.742Z,101960.34
2023-05-20T08:22:22.179Z,101956.53
2023-05-20T08:24:48.591Z,101945.50
2023-05-20T08:27:15.046Z,101949.78
2023-05-20T08:29:41.544Z,101937.75
2023-05-20T08:32:08.112Z,101948.91
2023-05-20T08:34:34.590Z,101953.59
2023-05-20T08:37:01.315Z,101947.00
2023-05-20T08:39:27.800Z,101944.75
2023-05-20T08:41:54.527Z,101942.09
2023-05-20T08:44:21.717Z,101930.50
2023-05-20T08:46:49.499Z,101924.19
2023-05-20T08:49:16.236Z,101936.34
2023-05-20T08:51:43.316Z,101939.22
2023-05-20T08:54:12.019Z,101918.25
2023-05-20T08:56:39.375Z,101918.66
2023-05-20T08:59:06.866Z,101914.69
2023-05-20T09:01:37.229Z,101921.94
2023-05-20T09:04:03.841Z,101918.72
2023-05-20T09:06:30.396Z,101919.38
2023-05-20T09:08:56.974Z,101921.97
2023-05-20T09:11:23.853Z,101911.88
2023-05-20T09:13:50.822Z,101910.66
2023-05-20T09:16:17.334Z,101911.75
2023-05-20T09:18:43.928Z,101915.69
2023-05-20T09:21:10.538Z,101917.88
2023-05-20T09:23:38.393Z,101913.22
2023-05-20T09:26:05.067Z,101906.13
2023-05-20T09:28:31.751Z,101904.94
2023-05-20T09:30:59.851Z,101904.59
2023-05-20T09:33:32.742Z,101896.59
2023-05-20T09:36:09.984Z,101901.59
2023-05-20T09:38:40.629Z,101898.88
2023-05-20T09:41:15.274Z,101891.97
2023-05-20T09:43:42.491Z,101889.38
2023-05-20T09:46:09.825Z,101888.03
2023-05-20T09:48:37.505Z,101892.38
2023-05-20T09:51:05.372Z,101883.56
2023-05-20T09:53:31.889Z,101878.41
2023-05-20T09:55:59.164Z,101875.50
2023-05-20T09:58:25.869Z,101873.47
2023-05-20T10:00:54.049Z,101884.97
2023-05-20T10:03:25.028Z,101880.28
2023-05-20T10:06:12.630Z,101887.88
2023-05-20T10:09:02.900Z,101888.09
2023-05-20T10:11:48.822Z,101872.78
2023-05-20T10:14:36.968Z,101871.59
2023-05-20T10:17:17.390Z,101873.88
2023-05-20T10:19:44.921Z,101868.56
2023-05-20T10:22:12.106Z,101865.69
2023-05-20T10:24:41.229Z,101862.94
2023-05-20T10:27:15.026Z,101857.53
2023-05-20T10:30:00.778Z,101841.78
2023-05-20T10:32:29.310Z,101855.31
2023-05-20T10:35:05.150Z,101838.75
2023-05-20T10:37:50.320Z,101841.38
2023-05-20T10:40:20.179Z,101838.06
2023-05-20T10:42:48.095Z,101848.84
2023-05-20T10:45:37.403Z,101853.00
2023-05-20T10:48:04.302Z,101859.16
2023-05-20T10:50:41.046Z,101841.28
2023-05-20T10:53:18.585Z,101837.00
2023-05-20T10:55:54.941Z,101830.88
2023-05-20T10:58:23.614Z,101841.84
2023-05-20T11:00:54.528Z,101839.91
2023-05-20T11:03:25.034Z,101839.06
2023-05-20T11:05:51.865Z,101845.06
2023-05-20T11:08:28.466Z,101836.84
2023-05-20T11:10:59.095Z,101832.56
2023-05-20T11:13:26.268Z,101827.13
2023-05-20T11:15:53.187Z,101824.59
2023-05-20T11:18:19.750Z,101827.47
2023-05-20T11:20:47.037Z,101823.94
2023-05-20T11:23:15.096Z,101821.19
2023-05-20T11:25:41.922Z,101819.66
2023-05-20T11:28:12.909Z,101825.38
2023-05-20T11:30:39.804Z,101817.47
2023-05-20T11:33:06.441Z,101797.69
2023-05-20T11:35:33.463Z,101798.34
2023-05-20T11:38:04.944Z,101800.59
2023-05-20T11:40:38.905Z,101783.13
2023-05-20T11:43:14.863Z,101805.06
2023-05-20T11:45:43.164Z,101789.44
2023-05-20T11:48:12.096Z,101801.47
2023-05-20T11:50:40.964Z,101799.09
2023-05-20T11:53:18.809Z,101780.78
2023-05-20T11:55:47.605Z,101796.91
2023-05-20T11:58:30.548Z,101797.28
2023-05-20T12:01:05.801Z,101788.16
2023-05-20T12:03:40.666Z,101772.41
2023-05-20T12:06:07.454Z,101773.25
2023-05-20T12:08:34.078Z,101782.69
2023-05-20T12:11:00.594Z,101780.72
2023-05-20T12:13:27.135Z,101783.75
2023-05-20T12:15:53.728Z,101779.06
2023-05-20T12:18:20.252Z,101774.78
2023-05-20T12:20:46.743Z,101781.41
2023-05-20T12:23:13.310Z,101782.91
2023-05-20T12:25:39.799Z,101774.28
2023-05-20T12:28:06.861Z,101794.13
2023-05-20T12:30:33.592Z,101780.22
2023-05-20T12:33:00.252Z,101787.28
2023-05-20T12:35:38.266Z,101786.06
2023-05-20T12:38:05.100Z,101780.63
2023-05-20T12:40:31.539Z,101781.13
2023-05-20T12:42:59.069Z,101788.06
2023-05-20T12:45:25.550Z,101784.06
2023-05-20T12:47:52.220Z,101774.84
2023-05-20T12:50:18.862Z,101773.75
2023-05-20T12:52:45.567Z,101765.88
2023-05-20T12:55:15.228Z,101770.72
2023-05-20T12:57:43.417Z,101766.44
2023-05-20T13:00:10.886Z,101765.81
2023-05-20T13:02:39.944Z,101758.50
2023-05-20T13:05:07.057Z,101756.56
2023-05-20T13:07:34.256Z,101756.28
2023-05-20T13:10:01.111Z,101761.50
2023-05-20T13:12:27.688Z,101758.63
2023-05-20T13:14:54.529Z,101754.50
2023-05-20T13:17:21.065Z,101763.94
2023-05-20T13:19:47.650Z,101759.03
2023-05-20T13:22:14.097Z,101756.88
2023-05-20T13:24:40.739Z,101757.56
2023-05-20T13:27:07.257Z,101762.53
2023-05-20T13:29:33.830Z,101761.16
2023-05-20T13:32:02.131Z,101749.41
2023-05-20T13:34:29.931Z,101750.50
2023-05-20T13:36:56.501Z,101752.34
2023-05-20T13:39:23.059Z,101753.72
2023-05-20T13:41:49.624Z,101750.44
2023-05-20T13:44:16.093Z,101745.94
2023-05-20T13:46:42.654Z,101738.22
2023-05-20T13:49:09.226Z,101738.72
2023-05-20T13:51:35.989Z,101726.19
2023-05-20T13:54:02.681Z,101725.00
2023-05-20T13:56:29.299Z,101720.16
2023-05-20T13:58:55.850Z,101706.63
2023-05-20T14:01:22.382Z,101708.72
2023-05-20T14:03:49.131Z,101710.50
2023-05-20T14:06:18.755Z,101693.06
2023-05-20T14:08:46.264Z,101700.59
2023-05-20T14:11:12.920Z,101695.59
2023-05-20T14:13:39.467Z,101689.88
2023-05-20T14:16:06.255Z,101693.19
2023-05-20T14:18:32.790Z,101692.47
2023-05-20T14:20:59.439Z,101692.06
2023-05-20T14:23:25.918Z,101686.44
2023-05-20T14:25:52.406Z,101686.38
2023-05-20T14:28:18.891Z,101678.47
2023-05-20T14:30:45.465Z,101686.50
2023-05-20T14:33:11.993Z,101685.09
2023-05-20T14:35:38.545Z,101669.78
2023-05-20T14:38:05.082Z,101674.78
2023-05-20T14:40:31.664Z,101678.31
2023-05-20T14:42:58.129Z,101677.06
2023-05-20T14:45:24.626Z,101670.00
2023-05-20T14:47:51.209Z,101669.38
2023-05-20T14:50:17.960Z,101677.69
2023-05-20T14:52:44.489Z,101666.59
2023-05-20T14:55:10.964Z,101659.94
2023-05-20T14:57:37.457Z,101658.91
2023-05-20T15:00:04.569Z,101664.16
2023-05-20T15:02:31.193Z,101651.69
2023-05-20T15:04:58.161Z,101655.41
2023-05-20T15:07:24.660Z,101651.97
2023-05-20T15:09:51.250Z,101648.38
2023-05-20T15:12:19.008Z,101642.66
2023-05-20T15:14:45.502Z,101646.72
2023-05-20T15:17:12.301Z,101641.44
2023-05-20T15:19:41.368Z,101645.13
2023-05-20T15:22:08.223Z,101642.13
2023-05-20T15:24:34.708Z,101638.72
2023-05-20T15:27:01.253Z,101638.94
2023-05-20T15:29:27.760Z,101628.81
2023-05-20T15:31:54.459Z,101639.59
2023-05-20T15:34:21.056Z,101641.72
2023-05-20T15:36:47.664Z,101634.53
2023-05-20T15:39:14.207Z,101633.03
2023-05-20T15:41:42.371Z,101630.94
2023-05-20T15:44:09.254Z,101638.56
2023-05-20T15:46:36.168Z,101634.53
2023-05-20T15:49:03.035Z,101632.22
2023-05-20T15:51:29.814Z,101631.16
2023-05-20T15:53:56.448Z,101624.16
2023-05-20T15:56:23.245Z,101627.53
2023-05-20T15:58:49.865Z,101619.09
2023-05-20T16:01:16.352Z,101617.19
2023-05-20T16:03:43.699Z,101610.66
2023-05-20T16:06:11.811Z,101606.22
2023-05-20T16:08:38.763Z,101614.22
2023-05-20T16:11:05.583Z,101604.72
2023-05-20T16:13:32.051Z,101599.44
2023-05-20T16:15:59.011Z,101600.09
2023-05-20T16:18:30.202Z,101607.28
2023-05-20T16:20:57.581Z,101597.97
2023-05-20T16:23:24.609Z,101608.56
2023-05-20T16:25:51.517Z,101606.00
2023-05-20T16:28:18.185Z,101608.97
2023-05-20T16:30:44.733Z,101610.66
2023-05-20T16:33:13.208Z,101609.19
2023-05-20T16:35:40.065Z,101603.91
2023-05-20T16:38:06.741Z,101595.47
2023-05-20T16:40:33.382Z,101596.72
2023-05-20T16:43:00.485Z,101598.81
2023-05-20T16:45:27.129Z,101593.75
2023-05-20T16:47:53.906Z,101600.72
2023-05-20T16:50:20.796Z,101592.91
2023-05-20T16:52:47.321Z,101604.47
2023-05-20T16:55:13.860Z,101609.97
2023-05-20T16:57:40.902Z,101601.75
2023-05-20T17:00:08.947Z,101607.47
2023-05-20T17:02:36.176Z,101615.44
2023-05-20T17:05:02.881Z,101617.31
2023-05-20T17:07:29.340Z,101614.09
2023-05-20T17:09:55.904Z,101608.56
2023-05-20T17:12:22.410Z,101613.00
2023-05-20T17:14:48.923Z,101608.28
2023-05-20T17:17:15.582Z,101613.81
2023-05-20T17:19:42.191Z,101614.22
2023-05-20T17:22:08.902Z,101607.00
2023-05-20T17:24:35.871Z,101617.97
2023-05-20T17:27:03.704Z,101616.03
2023-05-20T17:29:30.551Z,101613.75
2023-05-20T17:31:57.334Z,101621.75
2023-05-20T17:34:23.828Z,101616.91
2023-05-20T17:36:50.468Z,101624.91
2023-05-20T17:39:17.203Z,101621.00
2023-05-20T17:41:44.383Z,101632.41
2023-05-20T17:44:10.893Z,101633.84
2023-05-20T17:46:37.417Z,101635.78
2023-05-20T17:49:04.140Z,101638.44
2023-05-20T17:51:31.904Z,101640.00
2023-05-20T17:53:58.580Z,101636.94
2023-05-20T17:56:26.696Z,101640.44
2023-05-20T17:58:55.458Z,101639.47
2023-05-20T18:01:22.691Z,101644.56
2023-05-20T18:03:49.418Z,101650.91
2023-05-20T18:06:18.010Z,101663.25
2023-05-20T18:08:44.615Z,101667.22
2023-05-20T18:11:11.246Z,101666.06
2023-05-20T18:13:37.839Z,101663.91
2023-05-20T18:16:04.798Z,101674.16
2023-05-20T18:18:31.381Z,101675.47
2023-05-20T18:20:57.922Z,101671.63
2023-05-20T18:23:24.479Z,101671.16
2023-05-20T18:25:51.028Z,101672.06
2023-05-20T18:28:17.638Z,101675.22
2023-05-20T18:30:44.107Z,101672.44
2023-05-20T18:33:10.883Z,101672.63
2023-05-20T18:35:37.581Z,101675.47
2023-05-20T18:38:04.076Z,101666.28
2023-05-20T18:40:30.912Z,101668.25
2023-05-20T18:42:58.305Z,101666.53
2023-05-20T18:45:24.921Z,101663.38
2023-05-20T18:47:53.874Z,101660.13
2023-05-20T18:50:20.602Z,101659.22
2023-05-20T18:52:47.094Z,101655.72
2023-05-20T18:55:13.676Z,101650.66
2023-05-20T18:57:40.333Z,101652.34
2023-05-20T19:00:10.680Z,101651.31
2023-05-20T19:02:40.291Z,101655.63
2023-05-20T19:05:08.593Z,101646.56
2023-05-20T19:07:36.106Z,101641.78
2023-05-20T19:10:03.210Z,101653.72
2023-05-20T19:12:31.941Z,101648.28
2023-05-20T19:14:58.927Z,101652.50
2023-05-20T19:17:25.595Z,101659.84
2023-05-20T19:19:52.121Z,101656.72
2023-05-20T19:22:18.617Z,101657.38
2023-05-20T19:24:45.064Z,101671.94
2023-05-20T19:27:11.587Z,101672.03
2023-05-20T19:29:38.143Z,101670.91
2023-05-20T19:32:05.048Z,101673.72
2023-05-20T19:34:31.613Z,101671.22
2023-05-20T19:36:59.723Z,101674.78
2023-05-20T19:39:27.010Z,101686.25
2023-05-20T19:41:53.534Z,101678.38
2023-05-20T19:44:20.107Z,101678.81
2023-05-20T19:46:47.148Z,101687.03
2023-05-20T19:49:13.708Z,101687.75
2023-05-20T19:51:40.177Z,101687.66
2023-05-20T19:54:06.669Z,101690.00
2023-05-20T19:56:33.435Z,101690.84
2023-05-20T19:59:01.788Z,101693.22
2023-05-20T20:01:28.614Z,101684.53
2023-05-20T20:03:55.450Z,101689.41
2023-05-20T20:06:22.379Z,101686.53
2023-05-20T20:08:49.291Z,101687.19
2023-05-20T20:11:15.795Z,101678.69
2023-05-20T20:13:42.249Z,101689.44
2023-05-20T20:16:08.852Z,101680.00
2023-05-20T20:18:35.476Z,101675.97
2023-05-20T20:21:05.726Z,101676.63
2023-05-20T20:23:32.898Z,101668.44
2023-05-20T20:25:59.436Z,101676.94
2023-05-20T20:28:26.200Z,101673.06
2023-05-20T20:30:52.922Z,101675.13
2023-05-20T20:33:19.700Z,101673.06
2023-05-20T20:35:46.723Z,101671.66
2023-05-20T20:38:13.284Z,101679.50
2023-05-20T20:40:41.960Z,101681.56
2023-05-20T20:43:10.439Z,101680.88
2023-05-20T20:45:37.049Z,101675.34
2023-05-20T20:48:05.532Z,101678.03
2023-05-20T20:50:32.951Z,101673.44
2023-05-20T20:52:59.417Z,101667.31
2023-05-20T20:55:25.900Z,101676.81
2023-05-20T20:57:52.404Z,101673.97
2023-05-20T21:00:23.472Z,101669.38
2023-05-20T21:02:50.444Z,101668.22
2023-05-20T21:05:17.517Z,101670.53
2023-05-20T21:07:46.442Z,101668.31
2023-05-20T21:10:13.149Z,101670.69
2023-05-20T21:12:39.704Z,101669.00
2023-05-20T21:15:06.891Z,101664.09
2023-05-20T21:17:33.417Z,101665.66
2023-05-20T21:19:59.928Z,101667.41
2023-05-20T21:22:26.430Z,101659.19
2023-05-20T21:24:52.911Z,101664.06
2023-05-20T21:27:19.400Z,101655.91
2023-05-20T21:29:45.996Z,101654.22
2023-05-20T21:32:12.464Z,101657.34
2023-05-20T21:34:39.005Z,101645.72
2023-05-20T21:37:05.566Z,101654.53
2023-05-20T21:39:32.061Z,101653.78
2023-05-20T21:41:58.654Z,101652.09
2023-05-20T21:44:25.195Z,101648.72
2023-05-20T21:46:51.847Z,101643.09
2023-05-20T21:49:18.442Z,101640.41
2023-05-20T21:51:45.227Z,101639.38
2023-05-20T21:54:11.708Z,101641.19
2023-05-20T21:56:39.057Z,101634.09
2023-05-20T21:59:05.785Z,101632.59
2023-05-20T22:01:32.349Z,101623.38
2023-05-20T22:03:59.298Z,101625.97
2023-05-20T22:06:26.456Z,101625.44
2023-05-20T22:08:53.088Z,101620.19
2023-05-20T22:11:19.881Z,101624.59
2023-05-20T22:13:46.453Z,101619.66
2023-05-20T22:16:14.186Z,101616.94
2023-05-20T22:18:41.409Z,101612.94
2023-05-20T22:21:08.169Z,101615.44
2023-05-20T22:23:34.705Z,101614.81
2023-05-20T22:26:01.891Z,101608.69
2023-05-20T22:28:28.413Z,101616.19
2023-05-20T22:30:54.881Z,101608.19
2023-05-20T22:33:22.868Z,101612.44
2023-05-20T22:35:49.688Z,101610.25
2023-05-20T22:38:16.308Z,101611.44
2023-05-20T22:40:42.785Z,101611.44
2023-05-20T22:43:09.282Z,101612.84
2023-05-20T22:45:36.324Z,101612.53
2023-05-20T22:48:04.506Z,101604.69
2023-05-20T22:50:34.254Z,101609.75
2023-05-20T22:53:02.696Z,101611.47
2023-05-20T22:55:29.216Z,101614.38
2023-05-20T22:57:56.120Z,101611.66
2023-05-20T23:00:23.338Z,101609.81
2023-05-20T23:02:52.326Z,101602.63
2023-05-20T23:05:19.059Z,101603.63
2023-05-20T23:07:45.555Z,101605.00
2023-05-20T23:10:12.197Z,101599.03
2023-05-20T23:12:38.776Z,101599.72
2023-05-20T23:15:05.787Z,101591.41
2023-05-20T23:17:32.274Z,101593.94
2023-05-20T23:19:58.936Z,101591.75
2023-05-20T23:22:25.434Z,101591.25
2023-05-20T23:24:51.881Z,101584.59
2023-05-20T23:27:18.357Z,101582.38
2023-05-20T23:29:44.858Z,101579.16
2023-05-20T23:32:11.924Z,101576.28
2023-05-20T23:34:38.445Z,101584.47
2023-05-20T23:37:05.037Z,101576.97
2023-05-20T23:39:31.567Z,101570.31
2023-05-20T23:41:58.042Z,101570.69
2023-05-20T23:44:24.578Z,101567.28
2023-05-20T23:46:51.079Z,101567.63
2023-05-20T23:49:18.553Z,101563.72
2023-05-20T23:51:45.086Z,101559.81
2023-05-20T23:54:16.463Z,101561.19
2023-05-20T23:56:42.936Z,101566.97
2023-05-20T23:59:09.545Z,101572.41
